createdAt,value
2022-11-17T00:02:38.628Z,4.80
2022-11-17T00:06:20.915Z,4.40
2022-11-17T00:10:03.170Z,4.22
2022-11-17T00:14:03.408Z,3.20
2022-11-17T00:18:09.759Z,2.80
2022-11-17T00:21:53.169Z,3.25
2022-11-17T00:25:34.993Z,3.42
2022-11-17T00:29:16.811Z,3.33
2022-11-17T00:33:23.795Z,3.45
2022-11-17T00:40:47.866Z,4.07
2022-11-17T00:44:30.527Z,3.60
2022-11-17T00:48:12.553Z,4.22
2022-11-17T00:51:55.676Z,4.32
2022-11-17T00:55:37.535Z,4.45
2022-11-17T00:59:19.487Z,4.35
2022-11-17T01:03:01.309Z,2.95
2022-11-17T01:06:46.144Z,2.47
2022-11-17T01:10:27.969Z,3.13
2022-11-17T01:14:14.734Z,2.88
2022-11-17T01:17:56.606Z,2.38
2022-11-17T01:21:38.599Z,2.35
2022-11-17T01:25:20.435Z,1.73
2022-11-17T01:29:03.793Z,1.45
2022-11-17T01:32:45.723Z,2.13
2022-11-17T01:36:51.462Z,1.63
2022-11-17T01:40:33.330Z,1.48
2022-11-17T01:44:52.917Z,1.23
2022-11-17T01:48:34.884Z,1.50
2022-11-17T01:52:17.597Z,1.20
2022-11-17T01:56:07.550Z,1.20
2022-11-17T01:59:53.839Z,1.05
2022-11-17T02:03:37.551Z,1.27
2022-11-17T02:07:28.374Z,0.90
2022-11-17T02:11:15.487Z,1.02
2022-11-17T02:14:57.328Z,1.33
2022-11-17T02:18:40.590Z,0.93
2022-11-17T02:22:44.215Z,0.98
2022-11-17T02:26:35.131Z,1.02
2022-11-17T02:30:22.355Z,1.42
2022-11-17T02:38:22.275Z,1.83
2022-11-17T02:42:19.423Z,1.60
2022-11-17T02:49:57.028Z,1.33
2022-11-17T02:53:39.669Z,1.40
2022-11-17T02:57:32.629Z,0.98
2022-11-17T03:01:33.132Z,1.20
2022-11-17T03:05:37.281Z,1.05
2022-11-17T03:09:29.415Z,0.75
2022-11-17T03:13:33.756Z,1.02
2022-11-17T03:17:59.507Z,0.85
2022-11-17T03:21:41.363Z,0.82
2022-11-17T03:25:25.392Z,0.80
2022-11-17T03:29:12.655Z,0.82
2022-11-17T03:36:43.018Z,1.00
2022-11-17T03:40:29.055Z,1.10
2022-11-17T03:44:14.915Z,0.90
2022-11-17T03:48:21.212Z,1.10
2022-11-17T03:52:04.109Z,0.85
2022-11-17T03:55:50.032Z,0.88
2022-11-17T03:59:55.791Z,0.60
2022-11-17T04:03:38.361Z,0.60
2022-11-17T04:07:20.255Z,0.73
2022-11-17T04:11:20.653Z,1.00
2022-11-17T04:15:21.114Z,1.30
2022-11-17T04:19:02.986Z,1.20
2022-11-17T04:22:44.873Z,1.13
2022-11-17T04:26:45.211Z,1.30
2022-11-17T04:30:27.032Z,1.10
2022-11-17T04:34:08.902Z,2.53
2022-11-17T04:37:50.703Z,2.13
2022-11-17T04:41:53.307Z,2.20
2022-11-17T04:45:35.074Z,2.17
2022-11-17T04:49:18.692Z,3.03
2022-11-17T04:53:00.517Z,4.00
2022-11-17T04:56:42.588Z,4.20
2022-11-17T05:00:24.370Z,5.10
2022-11-17T05:04:11.305Z,5.68
2022-11-17T05:07:53.209Z,6.05
2022-11-17T05:11:53.754Z,7.10
2022-11-17T05:15:54.184Z,7.82
2022-11-17T05:19:45.254Z,6.68
2022-11-17T05:23:48.557Z,7.93
2022-11-17T05:27:30.499Z,7.88
2022-11-17T05:31:12.383Z,7.65
2022-11-17T05:34:54.171Z,8.05
2022-11-17T05:38:36.011Z,8.68
2022-11-17T05:42:17.788Z,8.00
2022-11-17T05:45:59.575Z,9.30
2022-11-17T05:49:41.354Z,9.75
2022-11-17T05:53:24.289Z,9.32
2022-11-17T05:57:30.616Z,10.40
2022-11-17T06:01:15.479Z,12.10
2022-11-17T06:04:57.248Z,13.07
2022-11-17T06:08:39.095Z,14.57
2022-11-17T06:12:20.882Z,13.88
2022-11-17T06:16:07.898Z,14.55
2022-11-17T06:19:55.752Z,12.93
2022-11-17T06:23:38.346Z,14.48
2022-11-17T06:27:20.271Z,12.27
2022-11-17T06:31:02.543Z,12.90
2022-11-17T06:34:51.956Z,12.75
2022-11-17T06:38:36.944Z,10.32
2022-11-17T06:42:18.762Z,11.55
2022-11-17T06:46:05.008Z,11.77
2022-11-17T06:49:46.834Z,12.85
2022-11-17T06:53:28.809Z,11.95
2022-11-17T06:57:10.653Z,12.93
2022-11-17T07:00:52.556Z,11.55
2022-11-17T07:04:34.467Z,11.82
2022-11-17T07:08:16.358Z,8.35
2022-11-17T07:11:58.185Z,7.60
2022-11-17T07:15:39.974Z,7.88
2022-11-17T07:19:21.826Z,7.05
2022-11-17T07:23:03.872Z,6.00
2022-11-17T07:26:45.820Z,6.75
2022-11-17T07:30:28.242Z,6.15
2022-11-17T07:34:10.237Z,6.75
2022-11-17T07:37:52.113Z,7.28
2022-11-17T07:41:33.992Z,5.82
2022-11-17T07:45:17.069Z,5.30
2022-11-17T07:48:58.892Z,4.80
2022-11-17T07:52:41.714Z,4.20
2022-11-17T07:56:23.652Z,3.78
2022-11-17T08:00:05.886Z,4.00
2022-11-17T08:03:47.896Z,3.40
2022-11-17T08:07:30.021Z,3.58
2022-11-17T08:11:13.035Z,3.33
2022-11-17T08:14:54.961Z,3.33
2022-11-17T08:18:37.596Z,3.55
2022-11-17T08:22:19.612Z,3.63
2022-11-17T08:26:05.634Z,3.83
2022-11-17T08:29:47.687Z,4.95
2022-11-17T08:33:29.866Z,4.15
2022-11-17T08:37:11.656Z,5.85
2022-11-17T08:40:53.462Z,5.65
2022-11-17T08:44:35.328Z,5.90
2022-11-17T08:48:17.191Z,6.65
2022-11-17T08:51:58.988Z,7.18
2022-11-17T08:55:41.561Z,6.18
2022-11-17T08:59:23.562Z,5.88
2022-11-17T09:03:06.758Z,6.45
2022-11-17T09:06:48.643Z,7.50
2022-11-17T09:10:30.423Z,6.13
2022-11-17T09:14:12.243Z,6.40
2022-11-17T09:17:54.057Z,6.10
2022-11-17T09:21:35.881Z,5.60
2022-11-17T09:25:17.690Z,6.47
2022-11-17T09:29:03.608Z,5.03
2022-11-17T09:32:47.359Z,5.35
2022-11-17T09:36:29.202Z,5.53
2022-11-17T09:40:15.544Z,4.28
2022-11-17T09:44:06.780Z,4.17
2022-11-17T09:48:39.613Z,4.45
2022-11-17T09:52:42.678Z,3.53
2022-11-17T09:56:27.304Z,3.80
2022-11-17T10:00:22.974Z,3.13
2022-11-17T10:04:12.534Z,3.00
2022-11-17T10:07:59.930Z,2.50
2022-11-17T10:11:44.165Z,2.80
2022-11-17T10:15:31.196Z,2.72
2022-11-17T10:19:22.235Z,3.30
2022-11-17T10:23:04.636Z,2.13
2022-11-17T10:26:48.513Z,2.22
2022-11-17T10:30:30.408Z,2.03
2022-11-17T10:34:31.962Z,1.42
2022-11-17T10:38:22.916Z,1.60
2022-11-17T10:42:29.353Z,1.55
2022-11-17T10:46:16.732Z,1.63
2022-11-17T10:50:19.908Z,1.75
2022-11-17T10:54:10.654Z,1.48
2022-11-17T10:58:01.133Z,1.77
2022-11-17T11:01:45.395Z,1.73
2022-11-17T11:05:27.247Z,1.77
2022-11-17T11:09:20.725Z,1.85
2022-11-17T11:13:19.298Z,1.70
2022-11-17T11:17:09.181Z,1.90
2022-11-17T11:21:07.801Z,2.13
2022-11-17T11:25:07.938Z,2.67
2022-11-17T11:29:22.725Z,2.30
2022-11-17T11:33:25.168Z,2.35
2022-11-17T11:37:11.257Z,2.10
2022-11-17T11:41:28.128Z,1.70
2022-11-17T11:45:15.731Z,1.42
2022-11-17T11:49:03.136Z,1.95
2022-11-17T11:53:19.836Z,1.90
2022-11-17T11:57:02.311Z,2.30
2022-11-17T12:00:45.396Z,1.42
2022-11-17T12:04:47.824Z,1.30
2022-11-17T12:08:38.051Z,1.30
2022-11-17T12:12:33.855Z,1.25
2022-11-17T12:16:31.925Z,1.40
2022-11-17T12:20:38.699Z,1.38
2022-11-17T12:28:32.043Z,1.45
2022-11-17T12:32:59.866Z,1.48
2022-11-17T12:36:41.709Z,1.40
2022-11-17T12:40:38.448Z,1.58
2022-11-17T12:44:38.434Z,1.63
2022-11-17T12:48:35.473Z,1.15
2022-11-17T12:52:26.061Z,1.55
2022-11-17T12:56:20.269Z,1.45
2022-11-17T13:00:23.307Z,2.15
2022-11-17T13:04:22.891Z,1.85
2022-11-17T13:08:22.917Z,2.10
2022-11-17T13:12:07.017Z,1.23
2022-11-17T13:15:52.027Z,1.40
2022-11-17T13:19:41.691Z,1.48
2022-11-17T13:23:29.185Z,1.23
2022-11-17T13:27:30.204Z,1.40
2022-11-17T13:31:26.031Z,0.95
2022-11-17T13:35:24.254Z,1.35
2022-11-17T13:39:19.604Z,1.50
2022-11-17T13:43:04.836Z,1.20
2022-11-17T13:46:46.720Z,1.30
2022-11-17T13:50:31.406Z,1.35
2022-11-17T13:54:13.471Z,1.98
2022-11-17T13:57:57.090Z,2.05
2022-11-17T14:01:38.919Z,2.20
2022-11-17T14:05:33.552Z,1.50
2022-11-17T14:09:18.904Z,1.70
2022-11-17T14:13:00.672Z,1.90
2022-11-17T14:16:42.545Z,2.25
2022-11-17T14:20:24.483Z,2.85
2022-11-17T14:24:11.665Z,2.13
2022-11-17T14:27:53.638Z,2.42
2022-11-17T14:31:35.470Z,1.73
2022-11-17T14:39:01.183Z,1.50
2022-11-17T14:42:43.028Z,1.60
2022-11-17T14:46:26.795Z,1.77
2022-11-17T14:50:18.638Z,1.70
2022-11-17T14:54:00.568Z,1.50
2022-11-17T14:57:42.519Z,1.77
2022-11-17T15:01:30.468Z,2.08
2022-11-17T15:05:12.605Z,2.25
2022-11-17T15:08:56.260Z,2.10
2022-11-17T15:12:38.036Z,2.10
2022-11-17T15:16:19.900Z,2.42
2022-11-17T15:20:01.715Z,2.60
2022-11-17T15:23:44.350Z,2.33
2022-11-17T15:27:26.192Z,2.70
2022-11-17T15:31:12.806Z,2.45
2022-11-17T15:34:54.577Z,2.45
2022-11-17T15:38:38.287Z,2.40
2022-11-17T15:42:20.096Z,2.95
2022-11-17T15:46:04.431Z,3.05
2022-11-17T15:49:46.887Z,2.92
2022-11-17T15:53:33.253Z,2.60
2022-11-17T15:57:15.016Z,2.93
2022-11-17T16:01:08.309Z,2.60
2022-11-17T16:04:50.173Z,3.08
2022-11-17T16:08:32.507Z,3.42
2022-11-17T16:12:14.372Z,3.75
2022-11-17T16:15:56.432Z,3.58
2022-11-17T16:19:38.217Z,3.63
2022-11-17T16:23:20.277Z,3.80
2022-11-17T16:27:02.514Z,3.13
2022-11-17T16:30:44.630Z,4.00
2022-11-17T16:34:26.576Z,3.55
2022-11-17T16:38:14.200Z,3.80
2022-11-17T16:41:56.000Z,3.63
2022-11-17T16:45:44.878Z,3.00
2022-11-17T16:49:26.762Z,3.38
2022-11-17T16:53:09.018Z,3.65
2022-11-17T16:56:50.786Z,3.63
2022-11-17T17:00:33.460Z,4.10
2022-11-17T17:04:15.346Z,3.40
2022-11-17T17:07:57.224Z,3.65
2022-11-17T17:11:39.659Z,4.28
2022-11-17T17:15:21.441Z,4.47
2022-11-17T17:19:05.285Z,4.68
2022-11-17T17:22:47.101Z,4.57
2022-11-17T17:26:30.760Z,4.28
2022-11-17T17:30:13.164Z,4.00
2022-11-17T17:33:56.040Z,3.78
2022-11-17T17:37:37.867Z,3.97
2022-11-17T17:41:20.533Z,4.45
2022-11-17T17:45:02.346Z,4.18
2022-11-17T17:48:45.479Z,4.00
2022-11-17T17:52:27.282Z,3.58
2022-11-17T17:56:14.176Z,3.20
2022-11-17T17:59:55.952Z,4.10
2022-11-17T18:03:38.955Z,2.92
2022-11-17T18:07:20.911Z,3.90
2022-11-17T18:11:06.129Z,3.22
2022-11-17T18:14:48.032Z,3.47
2022-11-17T18:18:29.829Z,3.45
2022-11-17T18:22:11.651Z,3.58
2022-11-17T18:25:53.632Z,3.35
2022-11-17T18:29:35.477Z,3.80
2022-11-17T18:33:17.333Z,4.93
2022-11-17T18:36:59.142Z,4.45
2022-11-17T18:40:40.935Z,3.70
2022-11-17T18:44:22.733Z,3.28
2022-11-17T18:48:05.681Z,3.65
2022-11-17T18:51:47.630Z,4.40
2022-11-17T18:55:29.417Z,4.28
2022-11-17T18:59:12.878Z,3.20
2022-11-17T19:02:54.810Z,3.00
2022-11-17T19:06:37.281Z,3.20
2022-11-17T19:10:19.158Z,2.83
2022-11-17T19:14:02.431Z,3.47
2022-11-17T19:17:44.325Z,3.22
2022-11-17T19:21:31.675Z,3.28
2022-11-17T19:25:13.536Z,3.28
2022-11-17T19:28:57.336Z,3.22
2022-11-17T19:32:39.148Z,4.00
2022-11-17T19:36:23.651Z,3.60
2022-11-17T19:40:05.902Z,3.33
2022-11-17T19:43:48.175Z,3.45
2022-11-17T19:47:30.430Z,4.00
2022-11-17T19:51:22.713Z,3.95
2022-11-17T19:55:04.847Z,3.95
2022-11-17T19:58:47.140Z,3.63
2022-11-17T20:02:29.009Z,3.28
2022-11-17T20:06:13.517Z,3.60
2022-11-17T20:09:55.322Z,3.22
2022-11-17T20:13:38.360Z,3.65
2022-11-17T20:17:20.111Z,3.40
2022-11-17T20:21:05.417Z,4.80
2022-11-17T20:24:47.260Z,3.40
2022-11-17T20:28:32.299Z,3.67
2022-11-17T20:32:14.096Z,3.67
2022-11-17T20:35:59.464Z,4.18
2022-11-17T20:39:41.270Z,3.33
2022-11-17T20:43:23.224Z,3.75
2022-11-17T20:47:05.210Z,4.10
2022-11-17T20:51:09.777Z,4.72
2022-11-17T20:54:51.567Z,4.40
2022-11-17T20:58:33.632Z,5.00
2022-11-17T21:02:15.472Z,5.55
2022-11-17T21:05:59.668Z,4.35
2022-11-17T21:09:41.624Z,4.68
2022-11-17T21:13:24.645Z,5.38
2022-11-17T21:17:26.469Z,3.80
2022-11-17T21:21:11.491Z,3.65
2022-11-17T21:24:53.323Z,3.60
2022-11-17T21:28:36.951Z,3.60
2022-11-17T21:32:18.747Z,3.58
2022-11-17T21:36:05.551Z,4.63
2022-11-17T21:39:47.411Z,3.35
2022-11-17T21:43:29.884Z,2.90
2022-11-17T21:47:12.168Z,3.55
2022-11-17T21:50:54.700Z,4.55
2022-11-17T21:54:36.475Z,3.67
2022-11-17T21:58:18.324Z,4.55
2022-11-17T22:02:00.205Z,4.75
2022-11-17T22:05:41.985Z,4.00
2022-11-17T22:09:23.785Z,3.72
2022-11-17T22:13:08.247Z,3.50
2022-11-17T22:16:52.232Z,3.60
2022-11-17T22:20:34.264Z,3.53
2022-11-17T22:24:16.652Z,3.20
2022-11-17T22:27:58.462Z,3.40
2022-11-17T22:31:40.266Z,2.53
2022-11-17T22:35:22.064Z,3.30
2022-11-17T22:39:04.310Z,2.38
2022-11-17T22:42:46.136Z,2.40
2022-11-17T22:46:28.902Z,2.33
2022-11-17T22:50:10.698Z,2.47
2022-11-17T22:53:52.453Z,2.88
2022-11-17T22:57:34.271Z,3.03
2022-11-17T23:01:16.057Z,2.40
2022-11-17T23:04:57.911Z,1.95
2022-11-17T23:08:39.768Z,2.80
2022-11-17T23:12:21.651Z,1.90
2022-11-17T23:16:05.948Z,1.83
2022-11-17T23:19:48.107Z,2.25
2022-11-17T23:23:36.333Z,1.98
2022-11-17T23:27:18.228Z,2.10
2022-11-17T23:31:05.486Z,2.00
2022-11-17T23:38:31.607Z,1.55
2022-11-17T23:42:13.406Z,1.70
2022-11-17T23:45:56.101Z,1.80
2022-11-17T23:49:37.941Z,2.15
2022-11-17T23:53:19.735Z,1.73
2022-11-17T23:57:01.544Z,1.85
